sensor_id;sensor_type;location;lat;lon;timestamp;temperature;humidity
16305;DHT22;8261;47.678;-122.174;2023-05-10T00:01:41;18.40;99.90
16305;DHT22;8261;47.678;-122.174;2023-05-10T00:04:13;18.80;99.90
16305;DHT22;8261;47.678;-122.174;2023-05-10T00:06:44;19.10;99.90
16305;DHT22;8261;47.678;-122.174;2023-05-10T00:09:15;19.30;99.90
16305;DHT22;8261;47.678;-122.174;2023-05-10T00:11:47;19.40;99.90
16305;DHT22;8261;47.678;-122.174;2023-05-10T00:14:19;19.50;99.90
16305;DHT22;8261;47.678;-122.174;2023-05-10T00:16:53;19.60;99.90
16305;DHT22;8261;47.678;-122.174;2023-05-10T00:19:25;19.80;99.90
16305;DHT22;8261;47.678;-122.174;2023-05-10T00:21:56;20.10;99.90
16305;DHT22;8261;47.678;-122.174;2023-05-10T00:24:27;20.30;99.90
16305;DHT22;8261;47.678;-122.174;2023-05-10T00:26:59;20.20;99.90
16305;DHT22;8261;47.678;-122.174;2023-05-10T00:29:32;20.30;99.90
16305;DHT22;8261;47.678;-122.174;2023-05-10T00:32:05;20.40;99.90
16305;DHT22;8261;47.678;-122.174;2023-05-10T00:34:37;20.40;99.90
16305;DHT22;8261;47.678;-122.174;2023-05-10T00:37:09;20.20;99.90
16305;DHT22;8261;47.678;-122.174;2023-05-10T00:39:44;20.10;99.90
16305;DHT22;8261;47.678;-122.174;2023-05-10T00:42:15;20.30;99.90
16305;DHT22;8261;47.678;-122.174;2023-05-10T00:44:46;20.00;99.90
16305;DHT22;8261;47.678;-122.174;2023-05-10T00:47:23;20.00;99.90
16305;DHT22;8261;47.678;-122.174;2023-05-10T00:49:55;20.10;99.90
16305;DHT22;8261;47.678;-122.174;2023-05-10T00:52:26;20.10;99.90
16305;DHT22;8261;47.678;-122.174;2023-05-10T00:54:58;19.60;99.90
16305;DHT22;8261;47.678;-122.174;2023-05-10T00:57:30;19.80;99.90
16305;DHT22;8261;47.678;-122.174;2023-05-10T01:00:02;19.80;99.90
16305;DHT22;8261;47.678;-122.174;2023-05-10T01:02:36;19.60;99.90
16305;DHT22;8261;47.678;-122.174;2023-05-10T01:05:07;19.80;99.90
16305;DHT22;8261;47.678;-122.174;2023-05-10T01:07:39;20.40;99.90
16305;DHT22;8261;47.678;-122.174;2023-05-10T01:10:11;20.90;99.90
16305;DHT22;8261;47.678;-122.174;2023-05-10T01:12:46;21.50;99.90
16305;DHT22;8261;47.678;-122.174;2023-05-10T01:15:18;22.10;99.90
16305;DHT22;8261;47.678;-122.174;2023-05-10T01:17:54;21.90;99.90
16305;DHT22;8261;47.678;-122.174;2023-05-10T01:20:26;21.80;99.90
16305;DHT22;8261;47.678;-122.174;2023-05-10T01:23:16;21.30;99.90
16305;DHT22;8261;47.678;-122.174;2023-05-10T01:29:24;21.20;99.90
16305;DHT22;8261;47.678;-122.174;2023-05-10T01:32:20;20.80;99.90
16305;DHT22;8261;47.678;-122.174;2023-05-10T01:34:58;20.90;99.90
16305;DHT22;8261;47.678;-122.174;2023-05-10T01:37:39;21.50;99.90
16305;DHT22;8261;47.678;-122.174;2023-05-10T01:40:26;21.00;99.90
16305;DHT22;8261;47.678;-122.174;2023-05-10T01:43:02;20.40;99.90
16305;DHT22;8261;47.678;-122.174;2023-05-10T01:45:38;20.00;99.90
16305;DHT22;8261;47.678;-122.174;2023-05-10T01:48:15;19.50;99.90
16305;DHT22;8261;47.678;-122.174;2023-05-10T01:50:48;19.40;99.90
16305;DHT22;8261;47.678;-122.174;2023-05-10T01:53:23;19.30;99.90
16305;DHT22;8261;47.678;-122.174;2023-05-10T01:55:56;18.70;99.90
16305;DHT22;8261;47.678;-122.174;2023-05-10T01:58:29;18.60;99.90
16305;DHT22;8261;47.678;-122.174;2023-05-10T02:01:04;18.50;99.90
16305;DHT22;8261;47.678;-122.174;2023-05-10T02:03:39;18.50;99.90
16305;DHT22;8261;47.678;-122.174;2023-05-10T02:06:13;18.30;99.90
16305;DHT22;8261;47.678;-122.174;2023-05-10T02:08:46;18.00;99.90
16305;DHT22;8261;47.678;-122.174;2023-05-10T02:11:19;17.90;99.90
16305;DHT22;8261;47.678;-122.174;2023-05-10T02:13:52;17.80;99.90
16305;DHT22;8261;47.678;-122.174;2023-05-10T02:16:26;17.70;99.90
16305;DHT22;8261;47.678;-122.174;2023-05-10T02:19:02;17.60;99.90
16305;DHT22;8261;47.678;-122.174;2023-05-10T02:21:34;17.50;99.90
16305;DHT22;8261;47.678;-122.174;2023-05-10T02:24:08;17.40;99.90
16305;DHT22;8261;47.678;-122.174;2023-05-10T02:26:41;17.40;99.90
16305;DHT22;8261;47.678;-122.174;2023-05-10T02:29:13;17.40;99.90
16305;DHT22;8261;47.678;-122.174;2023-05-10T02:31:45;17.50;99.90
16305;DHT22;8261;47.678;-122.174;2023-05-10T02:34:20;17.40;99.90
16305;DHT22;8261;47.678;-122.174;2023-05-10T02:36:53;17.30;99.90
16305;DHT22;8261;47.678;-122.174;2023-05-10T02:39:25;17.30;99.90
16305;DHT22;8261;47.678;-122.174;2023-05-10T02:41:58;17.30;99.90
16305;DHT22;8261;47.678;-122.174;2023-05-10T02:44:30;17.20;99.90
16305;DHT22;8261;47.678;-122.174;2023-05-10T02:47:02;17.20;99.90
16305;DHT22;8261;47.678;-122.174;2023-05-10T02:49:35;17.00;99.90
16305;DHT22;8261;47.678;-122.174;2023-05-10T02:52:07;16.90;99.90
16305;DHT22;8261;47.678;-122.174;2023-05-10T02:54:44;16.70;99.90
16305;DHT22;8261;47.678;-122.174;2023-05-10T02:57:17;16.60;99.90
16305;DHT22;8261;47.678;-122.174;2023-05-10T02:59:49;16.50;99.90
16305;DHT22;8261;47.678;-122.174;2023-05-10T03:02:21;16.40;99.90
16305;DHT22;8261;47.678;-122.174;2023-05-10T03:04:55;16.20;99.90
16305;DHT22;8261;47.678;-122.174;2023-05-10T03:07:26;16.20;99.90
16305;DHT22;8261;47.678;-122.174;2023-05-10T03:09:58;16.00;99.90
16305;DHT22;8261;47.678;-122.174;2023-05-10T03:12:39;15.90;99.90
16305;DHT22;8261;47.678;-122.174;2023-05-10T03:15:17;15.80;99.90
16305;DHT22;8261;47.678;-122.174;2023-05-10T03:17:54;15.70;99.90
16305;DHT22;8261;47.678;-122.174;2023-05-10T03:20:31;15.60;99.90
16305;DHT22;8261;47.678;-122.174;2023-05-10T03:25:55;15.40;99.90
16305;DHT22;8261;47.678;-122.174;2023-05-10T03:28:28;15.40;99.90
16305;DHT22;8261;47.678;-122.174;2023-05-10T03:31:00;15.30;99.90
16305;DHT22;8261;47.678;-122.174;2023-05-10T03:33:34;15.30;99.90
16305;DHT22;8261;47.678;-122.174;2023-05-10T03:36:09;15.10;99.90
16305;DHT22;8261;47.678;-122.174;2023-05-10T03:38:41;15.00;99.90
16305;DHT22;8261;47.678;-122.174;2023-05-10T03:41:12;14.90;99.90
16305;DHT22;8261;47.678;-122.174;2023-05-10T03:43:44;14.80;99.90
16305;DHT22;8261;47.678;-122.174;2023-05-10T03:46:16;14.70;99.90
16305;DHT22;8261;47.678;-122.174;2023-05-10T03:48:47;14.70;99.90
16305;DHT22;8261;47.678;-122.174;2023-05-10T03:51:21;14.70;99.90
16305;DHT22;8261;47.678;-122.174;2023-05-10T03:53:56;14.60;99.90
16305;DHT22;8261;47.678;-122.174;2023-05-10T03:56:27;14.50;99.90
16305;DHT22;8261;47.678;-122.174;2023-05-10T03:59:00;14.40;99.90
16305;DHT22;8261;47.678;-122.174;2023-05-10T04:01:36;14.30;99.90
16305;DHT22;8261;47.678;-122.174;2023-05-10T04:04:08;14.30;99.90
16305;DHT22;8261;47.678;-122.174;2023-05-10T04:06:41;14.20;99.90
16305;DHT22;8261;47.678;-122.174;2023-05-10T04:09:12;14.20;99.90
16305;DHT22;8261;47.678;-122.174;2023-05-10T04:11:45;14.10;99.90
16305;DHT22;8261;47.678;-122.174;2023-05-10T04:14:16;14.00;99.90
16305;DHT22;8261;47.678;-122.174;2023-05-10T04:16:48;14.00;99.90
16305;DHT22;8261;47.678;-122.174;2023-05-10T04:19:20;13.90;99.90
16305;DHT22;8261;47.678;-122.174;2023-05-10T04:21:54;13.90;99.90
16305;DHT22;8261;47.678;-122.174;2023-05-10T04:24:26;13.90;99.90
16305;DHT22;8261;47.678;-122.174;2023-05-10T04:26:58;13.80;99.90
16305;DHT22;8261;47.678;-122.174;2023-05-10T04:29:31;13.70;99.90
16305;DHT22;8261;47.678;-122.174;2023-05-10T04:32:03;13.60;99.90
16305;DHT22;8261;47.678;-122.174;2023-05-10T04:34:34;13.50;99.90
16305;DHT22;8261;47.678;-122.174;2023-05-10T04:37:08;13.40;99.90
16305;DHT22;8261;47.678;-122.174;2023-05-10T04:39:40;13.30;99.90
16305;DHT22;8261;47.678;-122.174;2023-05-10T04:42:11;13.30;99.90
16305;DHT22;8261;47.678;-122.174;2023-05-10T04:44:43;13.20;99.90
16305;DHT22;8261;47.678;-122.174;2023-05-10T04:47:16;13.10;99.90
16305;DHT22;8261;47.678;-122.174;2023-05-10T04:49:51;13.00;99.90
16305;DHT22;8261;47.678;-122.174;2023-05-10T04:52:28;12.90;99.90
16305;DHT22;8261;47.678;-122.174;2023-05-10T04:54:59;12.90;99.90
16305;DHT22;8261;47.678;-122.174;2023-05-10T04:57:31;12.90;99.90
16305;DHT22;8261;47.678;-122.174;2023-05-10T05:00:03;12.90;99.90
16305;DHT22;8261;47.678;-122.174;2023-05-10T05:02:35;12.80;99.90
16305;DHT22;8261;47.678;-122.174;2023-05-10T05:05:07;12.70;99.90
16305;DHT22;8261;47.678;-122.174;2023-05-10T05:07:41;12.70;99.90
16305;DHT22;8261;47.678;-122.174;2023-05-10T05:10:12;12.60;99.90
16305;DHT22;8261;47.678;-122.174;2023-05-10T05:12:44;12.60;99.90
16305;DHT22;8261;47.678;-122.174;2023-05-10T05:15:16;12.60;99.90
16305;DHT22;8261;47.678;-122.174;2023-05-10T05:17:48;12.50;99.90
16305;DHT22;8261;47.678;-122.174;2023-05-10T05:20:19;12.40;99.90
16305;DHT22;8261;47.678;-122.174;2023-05-10T05:22:53;12.30;99.90
16305;DHT22;8261;47.678;-122.174;2023-05-10T05:25:24;12.30;99.90
16305;DHT22;8261;47.678;-122.174;2023-05-10T05:27:56;12.30;99.90
16305;DHT22;8261;47.678;-122.174;2023-05-10T05:30:27;12.30;99.90
16305;DHT22;8261;47.678;-122.174;2023-05-10T05:32:59;12.20;99.90
16305;DHT22;8261;47.678;-122.174;2023-05-10T05:35:30;12.10;99.90
16305;DHT22;8261;47.678;-122.174;2023-05-10T05:38:04;12.10;99.90
16305;DHT22;8261;47.678;-122.174;2023-05-10T05:40:35;12.10;99.90
16305;DHT22;8261;47.678;-122.174;2023-05-10T05:43:07;12.00;99.90
16305;DHT22;8261;47.678;-122.174;2023-05-10T05:45:38;11.90;99.90
16305;DHT22;8261;47.678;-122.174;2023-05-10T05:48:10;11.90;99.90
16305;DHT22;8261;47.678;-122.174;2023-05-10T05:50:42;11.90;99.90
16305;DHT22;8261;47.678;-122.174;2023-05-10T05:53:16;11.80;99.90
16305;DHT22;8261;47.678;-122.174;2023-05-10T05:55:54;11.70;99.90
16305;DHT22;8261;47.678;-122.174;2023-05-10T05:58:26;11.70;99.90
16305;DHT22;8261;47.678;-122.174;2023-05-10T06:00:57;11.60;99.90
16305;DHT22;8261;47.678;-122.174;2023-05-10T06:03:29;11.60;99.90
16305;DHT22;8261;47.678;-122.174;2023-05-10T06:06:02;11.50;99.90
16305;DHT22;8261;47.678;-122.174;2023-05-10T06:08:37;11.50;99.90
16305;DHT22;8261;47.678;-122.174;2023-05-10T06:11:09;11.40;99.90
16305;DHT22;8261;47.678;-122.174;2023-05-10T06:13:40;11.40;99.90
16305;DHT22;8261;47.678;-122.174;2023-05-10T06:16:12;11.40;99.90
16305;DHT22;8261;47.678;-122.174;2023-05-10T06:18:44;11.40;99.90
16305;DHT22;8261;47.678;-122.174;2023-05-10T06:21:15;11.40;99.90
16305;DHT22;8261;47.678;-122.174;2023-05-10T06:23:49;11.30;99.90
16305;DHT22;8261;47.678;-122.174;2023-05-10T06:26:21;11.20;99.90
16305;DHT22;8261;47.678;-122.174;2023-05-10T06:28:54;11.10;99.90
16305;DHT22;8261;47.678;-122.174;2023-05-10T06:31:25;11.20;99.90
16305;DHT22;8261;47.678;-122.174;2023-05-10T06:33:57;11.10;99.90
16305;DHT22;8261;47.678;-122.174;2023-05-10T06:36:28;11.00;99.90
16305;DHT22;8261;47.678;-122.174;2023-05-10T06:39:03;10.90;99.90
16305;DHT22;8261;47.678;-122.174;2023-05-10T06:41:35;10.90;99.90
16305;DHT22;8261;47.678;-122.174;2023-05-10T06:44:06;10.80;99.90
16305;DHT22;8261;47.678;-122.174;2023-05-10T06:46:38;10.80;99.90
16305;DHT22;8261;47.678;-122.174;2023-05-10T06:49:11;10.80;99.90
16305;DHT22;8261;47.678;-122.174;2023-05-10T06:51:42;10.80;99.90
16305;DHT22;8261;47.678;-122.174;2023-05-10T06:54:16;10.80;99.90
16305;DHT22;8261;47.678;-122.174;2023-05-10T06:56:48;10.70;99.90
16305;DHT22;8261;47.678;-122.174;2023-05-10T06:59:20;10.70;99.90
16305;DHT22;8261;47.678;-122.174;2023-05-10T07:01:51;10.70;99.90
16305;DHT22;8261;47.678;-122.174;2023-05-10T07:04:23;10.70;99.90
16305;DHT22;8261;47.678;-122.174;2023-05-10T07:06:54;10.70;99.90
16305;DHT22;8261;47.678;-122.174;2023-05-10T07:09:32;10.60;99.90
16305;DHT22;8261;47.678;-122.174;2023-05-10T07:12:05;10.60;99.90
16305;DHT22;8261;47.678;-122.174;2023-05-10T07:14:41;10.60;99.90
16305;DHT22;8261;47.678;-122.174;2023-05-10T07:17:13;10.60;99.90
16305;DHT22;8261;47.678;-122.174;2023-05-10T07:19:45;10.50;99.90
16305;DHT22;8261;47.678;-122.174;2023-05-10T07:22:17;10.50;99.90
16305;DHT22;8261;47.678;-122.174;2023-05-10T07:24:52;10.40;99.90
16305;DHT22;8261;47.678;-122.174;2023-05-10T07:27:23;10.40;99.90
16305;DHT22;8261;47.678;-122.174;2023-05-10T07:29:55;10.40;99.90
16305;DHT22;8261;47.678;-122.174;2023-05-10T07:32:26;10.40;99.90
16305;DHT22;8261;47.678;-122.174;2023-05-10T07:34:58;10.30;99.90
16305;DHT22;8261;47.678;-122.174;2023-05-10T07:37:30;10.20;99.90
16305;DHT22;8261;47.678;-122.174;2023-05-10T07:40:04;10.20;99.90
16305;DHT22;8261;47.678;-122.174;2023-05-10T07:42:35;10.20;99.90
16305;DHT22;8261;47.678;-122.174;2023-05-10T07:45:09;10.20;99.90
16305;DHT22;8261;47.678;-122.174;2023-05-10T07:47:40;10.20;99.90
16305;DHT22;8261;47.678;-122.174;2023-05-10T07:50:11;10.20;99.90
16305;DHT22;8261;47.678;-122.174;2023-05-10T07:52:43;10.10;99.90
16305;DHT22;8261;47.678;-122.174;2023-05-10T07:55:18;10.10;99.90
16305;DHT22;8261;47.678;-122.174;2023-05-10T07:57:50;10.20;99.90
16305;DHT22;8261;47.678;-122.174;2023-05-10T08:00:21;10.20;99.90
16305;DHT22;8261;47.678;-122.174;2023-05-10T08:02:53;10.20;99.90
16305;DHT22;8261;47.678;-122.174;2023-05-10T08:05:24;10.20;99.90
16305;DHT22;8261;47.678;-122.174;2023-05-10T08:07:55;10.10;99.90
16305;DHT22;8261;47.678;-122.174;2023-05-10T08:10:30;10.10;99.90
16305;DHT22;8261;47.678;-122.174;2023-05-10T08:13:02;10.00;99.90
16305;DHT22;8261;47.678;-122.174;2023-05-10T08:15:37;10.00;99.90
16305;DHT22;8261;47.678;-122.174;2023-05-10T08:18:09;9.90;99.90
16305;DHT22;8261;47.678;-122.174;2023-05-10T08:20:40;9.90;99.90
16305;DHT22;8261;47.678;-122.174;2023-05-10T08:23:13;9.80;99.90
16305;DHT22;8261;47.678;-122.174;2023-05-10T08:25:46;9.80;99.90
16305;DHT22;8261;47.678;-122.174;2023-05-10T08:28:18;9.70;99.90
16305;DHT22;8261;47.678;-122.174;2023-05-10T08:30:50;9.70;99.90
16305;DHT22;8261;47.678;-122.174;2023-05-10T08:33:22;9.60;99.90
16305;DHT22;8261;47.678;-122.174;2023-05-10T08:35:53;9.60;99.90
16305;DHT22;8261;47.678;-122.174;2023-05-10T08:38:25;9.60;99.90
16305;DHT22;8261;47.678;-122.174;2023-05-10T08:40:59;9.50;99.90
16305;DHT22;8261;47.678;-122.174;2023-05-10T08:43:36;9.50;99.90
16305;DHT22;8261;47.678;-122.174;2023-05-10T08:46:10;9.40;99.90
16305;DHT22;8261;47.678;-122.174;2023-05-10T08:48:43;9.50;99.90
16305;DHT22;8261;47.678;-122.174;2023-05-10T08:51:18;9.50;99.90
16305;DHT22;8261;47.678;-122.174;2023-05-10T08:53:50;9.40;99.90
16305;DHT22;8261;47.678;-122.174;2023-05-10T08:56:24;9.40;99.90
16305;DHT22;8261;47.678;-122.174;2023-05-10T08:58:56;9.40;99.90
16305;DHT22;8261;47.678;-122.174;2023-05-10T09:01:29;9.30;99.90
16305;DHT22;8261;47.678;-122.174;2023-05-10T09:04:03;9.30;99.90
16305;DHT22;8261;47.678;-122.174;2023-05-10T09:06:35;9.30;99.90
16305;DHT22;8261;47.678;-122.174;2023-05-10T09:09:07;9.30;99.90
16305;DHT22;8261;47.678;-122.174;2023-05-10T09:11:42;9.20;99.90
16305;DHT22;8261;47.678;-122.174;2023-05-10T09:14:14;9.20;99.90
16305;DHT22;8261;47.678;-122.174;2023-05-10T09:16:47;9.20;99.90
16305;DHT22;8261;47.678;-122.174;2023-05-10T09:19:19;9.20;99.90
16305;DHT22;8261;47.678;-122.174;2023-05-10T09:21:50;9.10;99.90
16305;DHT22;8261;47.678;-122.174;2023-05-10T09:24:25;9.10;99.90
16305;DHT22;8261;47.678;-122.174;2023-05-10T09:26:59;9.20;99.90
16305;DHT22;8261;47.678;-122.174;2023-05-10T09:29:39;9.10;99.90
16305;DHT22;8261;47.678;-122.174;2023-05-10T09:32:12;9.10;99.90
16305;DHT22;8261;47.678;-122.174;2023-05-10T09:34:43;9.10;99.90
16305;DHT22;8261;47.678;-122.174;2023-05-10T09:37:14;9.10;99.90
16305;DHT22;8261;47.678;-122.174;2023-05-10T09:39:46;9.10;99.90
16305;DHT22;8261;47.678;-122.174;2023-05-10T09:42:20;9.10;99.90
16305;DHT22;8261;47.678;-122.174;2023-05-10T09:44:53;9.10;99.90
16305;DHT22;8261;47.678;-122.174;2023-05-10T09:47:27;9.00;99.90
16305;DHT22;8261;47.678;-122.174;2023-05-10T09:49:59;9.00;99.90
16305;DHT22;8261;47.678;-122.174;2023-05-10T09:52:47;8.90;99.90
16305;DHT22;8261;47.678;-122.174;2023-05-10T09:55:20;8.80;99.90
16305;DHT22;8261;47.678;-122.174;2023-05-10T09:57:59;8.80;99.90
16305;DHT22;8261;47.678;-122.174;2023-05-10T10:00:35;8.80;99.90
16305;DHT22;8261;47.678;-122.174;2023-05-10T10:03:11;8.90;99.90
16305;DHT22;8261;47.678;-122.174;2023-05-10T10:05:44;8.90;99.90
16305;DHT22;8261;47.678;-122.174;2023-05-10T10:08:16;8.80;99.90
16305;DHT22;8261;47.678;-122.174;2023-05-10T10:10:48;8.80;99.90
16305;DHT22;8261;47.678;-122.174;2023-05-10T10:13:22;8.80;99.90
16305;DHT22;8261;47.678;-122.174;2023-05-10T10:15:55;8.80;99.90
16305;DHT22;8261;47.678;-122.174;2023-05-10T10:18:27;8.80;99.90
16305;DHT22;8261;47.678;-122.174;2023-05-10T10:20:59;8.80;99.90
16305;DHT22;8261;47.678;-122.174;2023-05-10T10:23:31;8.70;99.90
16305;DHT22;8261;47.678;-122.174;2023-05-10T10:26:03;8.60;99.90
16305;DHT22;8261;47.678;-122.174;2023-05-10T10:28:44;8.60;99.90
16305;DHT22;8261;47.678;-122.174;2023-05-10T10:31:27;8.60;99.90
16305;DHT22;8261;47.678;-122.174;2023-05-10T10:34:06;8.50;99.90
16305;DHT22;8261;47.678;-122.174;2023-05-10T10:36:44;8.50;99.90
16305;DHT22;8261;47.678;-122.174;2023-05-10T10:39:17;8.40;99.90
16305;DHT22;8261;47.678;-122.174;2023-05-10T10:41:53;8.40;99.90
16305;DHT22;8261;47.678;-122.174;2023-05-10T10:44:41;8.30;99.90
16305;DHT22;8261;47.678;-122.174;2023-05-10T10:47:23;8.30;99.90
16305;DHT22;8261;47.678;-122.174;2023-05-10T10:50:05;8.30;99.90
16305;DHT22;8261;47.678;-122.174;2023-05-10T10:52:38;8.30;99.90
16305;DHT22;8261;47.678;-122.174;2023-05-10T10:55:11;8.20;99.90
16305;DHT22;8261;47.678;-122.174;2023-05-10T10:57:45;8.20;99.90
16305;DHT22;8261;47.678;-122.174;2023-05-10T11:00:27;8.20;99.90
16305;DHT22;8261;47.678;-122.174;2023-05-10T11:03:03;8.20;99.90
16305;DHT22;8261;47.678;-122.174;2023-05-10T11:05:37;8.20;99.90
16305;DHT22;8261;47.678;-122.174;2023-05-10T11:08:20;8.20;99.90
16305;DHT22;8261;47.678;-122.174;2023-05-10T11:11:05;8.10;99.90
16305;DHT22;8261;47.678;-122.174;2023-05-10T11:13:49;8.10;99.90
16305;DHT22;8261;47.678;-122.174;2023-05-10T11:16:23;8.10;99.90
16305;DHT22;8261;47.678;-122.174;2023-05-10T11:19:01;8.10;99.90
16305;DHT22;8261;47.678;-122.174;2023-05-10T11:21:33;8.00;99.90
16305;DHT22;8261;47.678;-122.174;2023-05-10T11:24:13;8.00;99.90
16305;DHT22;8261;47.678;-122.174;2023-05-10T11:26:48;8.00;99.90
16305;DHT22;8261;47.678;-122.174;2023-05-10T11:29:20;8.10;99.90
16305;DHT22;8261;47.678;-122.174;2023-05-10T11:31:57;8.00;99.90
16305;DHT22;8261;47.678;-122.174;2023-05-10T11:34:30;7.90;99.90
16305;DHT22;8261;47.678;-122.174;2023-05-10T11:37:02;7.90;99.90
16305;DHT22;8261;47.678;-122.174;2023-05-10T11:39:33;7.80;99.90
16305;DHT22;8261;47.678;-122.174;2023-05-10T11:42:05;7.80;99.90
16305;DHT22;8261;47.678;-122.174;2023-05-10T11:44:38;7.80;99.90
16305;DHT22;8261;47.678;-122.174;2023-05-10T11:47:12;7.80;99.90
16305;DHT22;8261;47.678;-122.174;2023-05-10T11:49:45;7.80;99.90
16305;DHT22;8261;47.678;-122.174;2023-05-10T11:52:19;7.70;99.90
16305;DHT22;8261;47.678;-122.174;2023-05-10T11:54:54;7.70;99.90
16305;DHT22;8261;47.678;-122.174;2023-05-10T11:57:27;7.60;99.90
16305;DHT22;8261;47.678;-122.174;2023-05-10T12:00:00;7.60;99.90
16305;DHT22;8261;47.678;-122.174;2023-05-10T12:02:35;7.60;99.90
16305;DHT22;8261;47.678;-122.174;2023-05-10T12:05:08;7.70;99.90
16305;DHT22;8261;47.678;-122.174;2023-05-10T12:07:41;7.70;99.90
16305;DHT22;8261;47.678;-122.174;2023-05-10T12:10:13;7.70;99.90
16305;DHT22;8261;47.678;-122.174;2023-05-10T12:12:47;7.70;99.90
16305;DHT22;8261;47.678;-122.174;2023-05-10T12:15:20;7.70;99.90
16305;DHT22;8261;47.678;-122.174;2023-05-10T12:17:53;7.70;99.90
16305;DHT22;8261;47.678;-122.174;2023-05-10T12:20:28;7.60;99.90
16305;DHT22;8261;47.678;-122.174;2023-05-10T12:22:59;7.60;99.90
16305;DHT22;8261;47.678;-122.174;2023-05-10T12:25:33;7.60;99.90
16305;DHT22;8261;47.678;-122.174;2023-05-10T12:28:06;7.60;99.90
16305;DHT22;8261;47.678;-122.174;2023-05-10T12:30:38;7.70;99.90
16305;DHT22;8261;47.678;-122.174;2023-05-10T12:33:12;7.70;99.90
16305;DHT22;8261;47.678;-122.174;2023-05-10T12:35:47;7.70;99.90
16305;DHT22;8261;47.678;-122.174;2023-05-10T12:38:36;7.60;99.90
16305;DHT22;8261;47.678;-122.174;2023-05-10T12:41:08;7.70;99.90
16305;DHT22;8261;47.678;-122.174;2023-05-10T12:43:40;7.60;99.90
16305;DHT22;8261;47.678;-122.174;2023-05-10T12:46:13;7.70;99.90
16305;DHT22;8261;47.678;-122.174;2023-05-10T12:48:48;7.70;99.90
16305;DHT22;8261;47.678;-122.174;2023-05-10T12:51:36;7.60;99.90
16305;DHT22;8261;47.678;-122.174;2023-05-10T12:54:07;7.60;99.90
16305;DHT22;8261;47.678;-122.174;2023-05-10T12:56:39;7.70;99.90
16305;DHT22;8261;47.678;-122.174;2023-05-10T12:59:11;7.70;99.90
16305;DHT22;8261;47.678;-122.174;2023-05-10T13:01:42;7.70;99.90
16305;DHT22;8261;47.678;-122.174;2023-05-10T13:04:16;7.70;99.90
16305;DHT22;8261;47.678;-122.174;2023-05-10T13:06:47;7.70;99.90
16305;DHT22;8261;47.678;-122.174;2023-05-10T13:09:19;7.70;99.90
16305;DHT22;8261;47.678;-122.174;2023-05-10T13:11:50;7.80;99.90
16305;DHT22;8261;47.678;-122.174;2023-05-10T13:14:22;7.70;99.90
16305;DHT22;8261;47.678;-122.174;2023-05-10T13:16:53;7.80;99.90
16305;DHT22;8261;47.678;-122.174;2023-05-10T13:19:27;7.70;99.90
16305;DHT22;8261;47.678;-122.174;2023-05-10T13:21:58;7.70;99.90
16305;DHT22;8261;47.678;-122.174;2023-05-10T13:24:30;7.70;99.90
16305;DHT22;8261;47.678;-122.174;2023-05-10T13:27:02;7.80;99.90
16305;DHT22;8261;47.678;-122.174;2023-05-10T13:29:33;7.80;99.90
16305;DHT22;8261;47.678;-122.174;2023-05-10T13:32:05;7.80;99.90
16305;DHT22;8261;47.678;-122.174;2023-05-10T13:34:42;7.80;99.90
16305;DHT22;8261;47.678;-122.174;2023-05-10T13:37:14;7.90;99.90
16305;DHT22;8261;47.678;-122.174;2023-05-10T13:39:45;7.90;99.90
16305;DHT22;8261;47.678;-122.174;2023-05-10T13:42:18;8.00;99.90
16305;DHT22;8261;47.678;-122.174;2023-05-10T13:44:49;8.10;99.90
16305;DHT22;8261;47.678;-122.174;2023-05-10T13:47:21;8.20;99.90
16305;DHT22;8261;47.678;-122.174;2023-05-10T13:49:55;8.20;99.90
16305;DHT22;8261;47.678;-122.174;2023-05-10T13:52:27;8.30;99.90
16305;DHT22;8261;47.678;-122.174;2023-05-10T13:55:04;8.30;99.90
16305;DHT22;8261;47.678;-122.174;2023-05-10T13:57:36;8.40;99.90
16305;DHT22;8261;47.678;-122.174;2023-05-10T14:00:08;8.40;99.90
16305;DHT22;8261;47.678;-122.174;2023-05-10T14:02:40;8.50;99.90
16305;DHT22;8261;47.678;-122.174;2023-05-10T14:05:14;8.60;99.90
16305;DHT22;8261;47.678;-122.174;2023-05-10T14:07:52;8.60;99.90
16305;DHT22;8261;47.678;-122.174;2023-05-10T14:10:23;8.60;99.90
16305;DHT22;8261;47.678;-122.174;2023-05-10T14:12:55;8.70;99.90
16305;DHT22;8261;47.678;-122.174;2023-05-10T14:15:27;8.80;99.90
16305;DHT22;8261;47.678;-122.174;2023-05-10T14:17:58;8.80;99.90
16305;DHT22;8261;47.678;-122.174;2023-05-10T14:20:31;8.80;99.90
16305;DHT22;8261;47.678;-122.174;2023-05-10T14:23:02;8.90;99.90
16305;DHT22;8261;47.678;-122.174;2023-05-10T14:25:36;8.90;99.90
16305;DHT22;8261;47.678;-122.174;2023-05-10T14:28:07;9.00;99.90
16305;DHT22;8261;47.678;-122.174;2023-05-10T14:30:38;9.10;99.90
16305;DHT22;8261;47.678;-122.174;2023-05-10T14:33:09;9.10;99.90
16305;DHT22;8261;47.678;-122.174;2023-05-10T14:35:45;9.10;99.90
16305;DHT22;8261;47.678;-122.174;2023-05-10T14:38:16;9.20;99.90
16305;DHT22;8261;47.678;-122.174;2023-05-10T14:40:48;9.40;99.90
16305;DHT22;8261;47.678;-122.174;2023-05-10T14:43:19;9.40;99.90
16305;DHT22;8261;47.678;-122.174;2023-05-10T14:45:50;9.50;99.90
16305;DHT22;8261;47.678;-122.174;2023-05-10T14:48:22;9.60;99.90
16305;DHT22;8261;47.678;-122.174;2023-05-10T14:50:56;9.80;99.90
16305;DHT22;8261;47.678;-122.174;2023-05-10T14:53:27;10.10;99.90
16305;DHT22;8261;47.678;-122.174;2023-05-10T14:55:58;10.50;99.90
16305;DHT22;8261;47.678;-122.174;2023-05-10T14:58:30;10.70;99.90
16305;DHT22;8261;47.678;-122.174;2023-05-10T15:01:01;11.00;99.90
16305;DHT22;8261;47.678;-122.174;2023-05-10T15:03:32;11.20;99.90
16305;DHT22;8261;47.678;-122.174;2023-05-10T15:06:08;11.50;99.90
16305;DHT22;8261;47.678;-122.174;2023-05-10T15:08:40;11.80;99.90
16305;DHT22;8261;47.678;-122.174;2023-05-10T15:11:12;11.80;99.90
16305;DHT22;8261;47.678;-122.174;2023-05-10T15:13:44;11.60;99.90
16305;DHT22;8261;47.678;-122.174;2023-05-10T15:16:16;11.50;99.90
16305;DHT22;8261;47.678;-122.174;2023-05-10T15:18:47;11.50;99.90
16305;DHT22;8261;47.678;-122.174;2023-05-10T15:21:20;11.50;99.90
16305;DHT22;8261;47.678;-122.174;2023-05-10T15:23:52;11.40;99.90
16305;DHT22;8261;47.678;-122.174;2023-05-10T15:26:23;11.50;99.90
16305;DHT22;8261;47.678;-122.174;2023-05-10T15:28:54;11.60;99.90
16305;DHT22;8261;47.678;-122.174;2023-05-10T15:31:26;11.70;99.90
16305;DHT22;8261;47.678;-122.174;2023-05-10T15:33:58;11.70;99.90
16305;DHT22;8261;47.678;-122.174;2023-05-10T15:36:32;11.60;99.90
16305;DHT22;8261;47.678;-122.174;2023-05-10T15:39:04;11.70;99.90
16305;DHT22;8261;47.678;-122.174;2023-05-10T15:41:35;11.80;99.90
16305;DHT22;8261;47.678;-122.174;2023-05-10T15:44:06;11.80;99.90
16305;DHT22;8261;47.678;-122.174;2023-05-10T15:46:38;11.90;99.90
16305;DHT22;8261;47.678;-122.174;2023-05-10T15:49:09;11.90;99.90
16305;DHT22;8261;47.678;-122.174;2023-05-10T15:51:42;11.90;99.90